Time;durP1;ratioP1;P1;durP2;ratioP2;P2;SDS_P1;SDS_P2;PMS_P1;PMS_P2;Temp;Humidity;BMP_temperature;BMP_pressure;BME280_temperature;BME280_humidity;BME280_pressure;Samples;Min_cycle;Max_cycle;Signal;HPM_P1;HPM_P2
2021/05/18 00:00:39;;;;;;;7.22;5.40;;;12.50;99.90;;;;;;5075272;28;20036;-72
2021/05/18 00:03:07;;;;;;;6.90;5.47;;;12.60;99.90;;;;;;5074841;28;20025;-73
2021/05/18 00:05:36;;;;;;;9.52;5.68;;;12.60;99.90;;;;;;5075216;28;20032;-75
2021/05/18 00:08:07;;;;;;;11.25;5.65;;;12.60;99.90;;;;;;5075372;28;20023;-76
2021/05/18 00:13:22;;;;;;;11.15;6.95;;;12.60;99.90;;;;;;5074986;28;20027;-77
2021/05/18 00:15:50;;;;;;;9.90;6.43;;;12.60;99.90;;;;;;5074897;28;20070;-75
2021/05/18 00:18:17;;;;;;;10.13;6.60;;;12.60;99.90;;;;;;5074798;28;20137;-73
2021/05/18 00:20:43;;;;;;;9.73;7.18;;;12.60;99.90;;;;;;5074937;28;20048;-72
2021/05/18 00:23:11;;;;;;;10.07;7.00;;;12.60;99.90;;;;;;5074376;28;20044;-76
2021/05/18 00:25:38;;;;;;;7.90;6.75;;;12.50;99.90;;;;;;5074832;28;20107;-75
2021/05/18 00:28:04;;;;;;;7.85;6.57;;;12.50;99.90;;;;;;5074279;28;20182;-72
2021/05/18 00:30:30;;;;;;;9.23;6.88;;;12.60;99.90;;;;;;5074741;28;20064;-73
2021/05/18 00:32:56;;;;;;;7.90;7.10;;;12.60;99.90;;;;;;5074713;28;20020;-77
2021/05/18 00:35:22;;;;;;;9.35;7.22;;;12.60;99.90;;;;;;5074292;28;20062;-78
2021/05/18 00:37:48;;;;;;;7.85;6.70;;;12.60;99.90;;;;;;5074260;28;20513;-73
2021/05/18 00:40:17;;;;;;;9.90;7.22;;;12.70;99.90;;;;;;5074632;28;20048;-74
2021/05/18 00:42:48;;;;;;;9.45;7.38;;;12.60;99.90;;;;;;5074470;28;20025;-75
2021/05/18 00:45:17;;;;;;;8.75;7.05;;;12.50;99.90;;;;;;5074147;28;20090;-75
2021/05/18 00:47:43;;;;;;;8.77;6.85;;;12.60;99.90;;;;;;5072844;28;20031;-72
2021/05/18 00:50:11;;;;;;;10.80;6.93;;;12.60;99.90;;;;;;5072032;28;20504;-73
2021/05/18 00:52:38;;;;;;;9.38;7.43;;;12.60;99.90;;;;;;5072840;28;20025;-74
2021/05/18 00:55:08;;;;;;;9.95;6.47;;;12.50;99.90;;;;;;5073782;28;20035;-72
2021/05/18 01:00:19;;;;;;;10.75;6.88;;;12.50;99.90;;;;;;5074012;28;20070;-75
2021/05/18 01:02:47;;;;;;;9.40;6.47;;;12.40;99.90;;;;;;5073895;28;20025;-72
2021/05/18 01:05:21;;;;;;;10.65;6.45;;;12.40;99.90;;;;;;5074054;28;20030;-74
2021/05/18 01:07:48;;;;;;;8.13;6.40;;;12.30;99.90;;;;;;5073951;28;20025;-75
2021/05/18 01:10:16;;;;;;;8.73;6.10;;;12.40;99.90;;;;;;5073701;28;20387;-73
2021/05/18 01:12:42;;;;;;;8.40;6.22;;;12.20;99.90;;;;;;5072369;28;20051;-75
2021/05/18 01:15:09;;;;;;;9.90;7.15;;;12.10;99.90;;;;;;5074163;28;20538;-73
2021/05/18 01:17:35;;;;;;;11.55;9.05;;;12.00;99.90;;;;;;5073675;28;20036;-72
2021/05/18 01:20:12;;;;;;;8.43;7.53;;;12.00;99.90;;;;;;5073656;28;20063;-72
2021/05/18 01:22:43;;;;;;;10.52;7.00;;;11.90;99.90;;;;;;5074024;28;20046;-76
2021/05/18 01:25:10;;;;;;;9.38;5.82;;;12.00;99.90;;;;;;5073688;28;20456;-77
2021/05/18 01:27:37;;;;;;;6.72;5.03;;;11.90;99.90;;;;;;5071893;28;20121;-72
2021/05/18 01:30:05;;;;;;;7.50;5.07;;;12.00;99.90;;;;;;5073547;28;20093;-77
2021/05/18 01:32:31;;;;;;;6.43;4.80;;;11.90;99.90;;;;;;5073297;28;20025;-73
2021/05/18 01:34:58;;;;;;;7.85;4.68;;;11.90;99.90;;;;;;5072287;28;20024;-73
2021/05/18 01:37:24;;;;;;;6.22;4.65;;;11.80;99.90;;;;;;5073625;28;20017;-73
2021/05/18 01:45:30;;;;;;;6.10;4.40;;;11.70;99.90;;;;;;5073923;28;20508;-72
2021/05/18 01:48:02;;;;;;;6.80;4.55;;;11.80;99.90;;;;;;5073600;28;20021;-72
2021/05/18 01:50:29;;;;;;;7.30;4.55;;;11.80;99.90;;;;;;5072569;28;20116;-72
2021/05/18 01:52:56;;;;;;;6.60;4.80;;;11.80;99.90;;;;;;5073250;28;20551;-73
2021/05/18 01:55:36;;;;;;;8.90;4.72;;;11.80;99.90;;;;;;5072579;28;20023;-72
2021/05/18 01:58:02;;;;;;;6.00;4.50;;;11.80;99.90;;;;;;5073578;28;20027;-71
2021/05/18 02:00:31;;;;;;;5.60;4.22;;;11.80;99.90;;;;;;5072096;28;20020;-73
2021/05/18 02:02:58;;;;;;;5.82;4.80;;;11.80;99.90;;;;;;5076692;28;20089;-71
2021/05/18 02:05:29;;;;;;;7.63;4.22;;;11.70;99.90;;;;;;5077486;28;20044;-72
2021/05/18 02:07:57;;;;;;;9.07;4.30;;;11.70;99.90;;;;;;5075889;28;20032;-72
2021/05/18 02:10:23;;;;;;;6.38;4.45;;;11.50;99.90;;;;;;5077198;28;20586;-77
2021/05/18 02:12:49;;;;;;;7.93;4.47;;;11.50;99.90;;;;;;5077035;28;20021;-72
2021/05/18 02:26:28;;;;;;;7.25;4.25;;;11.40;99.90;;;;;;5076939;28;20027;-73
2021/05/18 02:28:57;;;;;;;4.70;3.28;;;11.50;99.90;;;;;;5076135;28;20410;-75
2021/05/18 02:31:24;;;;;;;4.72;3.30;;;11.50;99.90;;;;;;5076837;28;20103;-75
2021/05/18 02:33:51;;;;;;;4.85;3.22;;;11.60;99.90;;;;;;5076884;28;20472;-71
2021/05/18 02:36:24;;;;;;;3.97;3.03;;;11.50;99.90;;;;;;5076695;28;20108;-73
2021/05/18 02:38:50;;;;;;;6.18;3.10;;;11.50;99.90;;;;;;5076960;28;20021;-74
2021/05/18 02:41:16;;;;;;;6.80;3.33;;;11.50;99.90;;;;;;5075404;28;20030;-77
2021/05/18 02:44:06;;;;;;;6.00;3.13;;;11.40;99.90;;;;;;5075287;28;20020;-75
2021/05/18 02:49:16;;;;;;;4.53;2.60;;;11.30;99.90;;;;;;5076836;28;20047;-72
2021/05/18 02:51:45;;;;;;;3.58;2.70;;;11.20;99.90;;;;;;5076391;28;20104;-71
2021/05/18 02:54:12;;;;;;;6.57;2.80;;;11.30;99.90;;;;;;5075541;28;20035;-74
2021/05/18 02:56:49;;;;;;;3.88;2.55;;;11.30;99.90;;;;;;5074882;28;20029;-73
2021/05/18 02:59:17;;;;;;;3.85;2.67;;;11.30;99.90;;;;;;5075004;28;20032;-77
2021/05/18 03:01:49;;;;;;;3.75;2.80;;;11.40;99.90;;;;;;5076376;28;20024;-76
2021/05/18 03:04:15;;;;;;;7.90;3.00;;;11.30;99.90;;;;;;5074912;28;20052;-73
2021/05/18 03:06:41;;;;;;;7.25;3.20;;;11.30;99.90;;;;;;5076460;28;20029;-76
2021/05/18 03:09:11;;;;;;;7.78;2.90;;;11.30;99.90;;;;;;5076150;28;20020;-77
2021/05/18 03:11:39;;;;;;;5.95;2.55;;;11.30;99.90;;;;;;5076193;28;20028;-76
2021/05/18 03:14:07;;;;;;;5.78;2.60;;;11.20;99.90;;;;;;5075163;28;20367;-74
2021/05/18 03:16:35;;;;;;;6.20;2.90;;;11.20;99.90;;;;;;5076120;28;20024;-75
2021/05/18 03:19:01;;;;;;;5.03;2.45;;;11.30;99.90;;;;;;5076071;28;20020;-75
2021/05/18 03:21:28;;;;;;;4.32;2.30;;;11.40;99.90;;;;;;5074785;28;20044;-77
2021/05/18 03:23:54;;;;;;;4.30;2.35;;;11.40;99.90;;;;;;5075945;28;20020;-73
2021/05/18 03:26:20;;;;;;;3.88;2.58;;;11.30;99.90;;;;;;5075513;28;20024;-71
2021/05/18 03:28:47;;;;;;;3.78;2.40;;;11.40;99.90;;;;;;5073899;28;20079;-71
2021/05/18 03:36:42;;;;;;;6.88;2.70;;;11.50;99.90;;;;;;5075779;28;20039;-73
2021/05/18 03:39:08;;;;;;;7.38;3.40;;;11.50;99.90;;;;;;5075492;28;20111;-73
2021/05/18 03:41:48;;;;;;;8.73;3.80;;;11.50;99.90;;;;;;5075490;28;20029;-73
2021/05/18 03:45:15;;;;;;;7.72;3.95;;;11.30;99.90;;;;;;5075785;28;20024;-77
2021/05/18 03:53:13;;;;;;;7.60;3.85;;;11.40;99.90;;;;;;5075581;28;20039;-72
2021/05/18 04:12:05;;;;;;;6.60;3.83;;;11.40;99.90;;;;;;5075032;28;20101;-77
2021/05/18 04:17:16;;;;;;;7.70;2.95;;;11.50;99.90;;;;;;5075278;28;20035;-71
2021/05/18 04:19:49;;;;;;;6.50;3.05;;;11.50;99.90;;;;;;5073503;28;20371;-73
2021/05/18 04:38:41;;;;;;;7.47;2.90;;;11.80;99.90;;;;;;5074607;28;20103;-73
2021/05/18 04:51:45;;;;;;;9.00;2.42;;;12.70;99.90;;;;;;5054566;28;20502;-73
2021/05/18 04:59:33;;;;;;;5.47;2.15;;;13.10;99.90;;;;;;5054264;28;20043;-73
2021/05/18 05:07:04;;;;;;;;;;;;;;;;;;5054587;28;20029;-72
2021/05/18 05:09:33;;;;;;;5.78;2.00;;;13.40;99.90;;;;;;5054042;28;20370;-77
2021/05/18 05:14:44;;;;;;;6.22;2.10;;;13.70;99.90;;;;;;5060055;28;20032;-73
2021/05/18 05:17:10;;;;;;;4.88;1.83;;;13.80;99.90;;;;;;5064532;28;20035;-71
2021/05/18 05:19:36;;;;;;;5.00;2.00;;;13.90;99.90;;;;;;5053847;28;20467;-73
2021/05/18 05:22:04;;;;;;;7.28;1.70;;;14.10;99.90;;;;;;5071979;28;20028;-76
2021/05/18 05:24:31;;;;;;;4.03;1.70;;;14.20;99.90;;;;;;5070149;28;20017;-71
2021/05/18 05:26:57;;;;;;;5.65;2.00;;;14.30;99.90;;;;;;5062370;28;20009;-72
2021/05/18 05:29:23;;;;;;;4.28;2.05;;;14.30;99.90;;;;;;5062959;28;20049;-72
2021/05/18 05:31:50;;;;;;;8.10;2.20;;;14.30;99.90;;;;;;5063043;28;20016;-72
2021/05/18 05:34:18;;;;;;;5.10;1.83;;;14.40;99.90;;;;;;5062343;28;20071;-72
2021/05/18 05:36:44;;;;;;;5.07;1.70;;;14.40;99.90;;;;;;5061369;28;20017;-71
2021/05/18 05:41:45;;;;;;;3.60;1.55;;;14.40;99.90;;;;;;5063682;28;20040;-71
2021/05/18 05:44:11;;;;;;;6.20;1.40;;;14.40;99.90;;;;;;5063398;28;20025;-72
2021/05/18 05:46:37;;;;;;;7.30;2.00;;;14.50;99.90;;;;;;5062505;28;20075;-75
2021/05/18 05:49:03;;;;;;;4.82;1.90;;;14.60;99.90;;;;;;5061668;28;20416;-73
2021/05/18 05:51:30;;;;;;;3.58;1.50;;;14.70;99.90;;;;;;5071927;28;20020;-72
2021/05/18 05:54:01;;;;;;;3.72;1.25;;;14.70;99.90;;;;;;5073389;28;20016;-72
2021/05/18 05:56:28;;;;;;;2.40;1.27;;;14.70;99.90;;;;;;5073659;28;20020;-76
2021/05/18 05:58:55;;;;;;;3.45;1.30;;;14.80;99.90;;;;;;5072180;28;20027;-77
2021/05/18 06:01:21;;;;;;;2.10;1.50;;;14.80;99.90;;;;;;5073378;28;20073;-76
2021/05/18 06:03:47;;;;;;;3.88;1.50;;;14.80;99.90;;;;;;5073627;28;20024;-77
2021/05/18 06:06:14;;;;;;;5.70;1.50;;;14.90;99.90;;;;;;5074194;28;20021;-73
2021/05/18 06:08:44;;;;;;;3.28;1.30;;;15.00;99.90;;;;;;5073262;28;20354;-77
2021/05/18 06:48:39;;;;;;;5.57;1.52;;;15.60;99.90;;;;;;5074864;28;20119;-77
2021/05/18 06:51:05;;;;;;;2.75;1.60;;;15.70;99.90;;;;;;5075307;28;20029;-76
2021/05/18 06:53:31;;;;;;;3.95;1.60;;;15.60;99.90;;;;;;5076564;28;20474;-77
2021/05/18 06:55:58;;;;;;;3.25;1.60;;;15.60;99.90;;;;;;5076629;28;20024;-72
2021/05/18 07:01:04;;;;;;;2.75;1.30;;;15.90;99.90;;;;;;5076232;28;20041;-71
2021/05/18 07:03:35;;;;;;;3.65;1.35;;;16.20;99.90;;;;;;5076154;28;20016;-72
2021/05/18 07:11:02;;;;;;;4.57;1.25;;;16.40;99.90;;;;;;5054850;28;20021;-71
2021/05/18 07:13:29;;;;;;;4.95;1.52;;;16.50;99.90;;;;;;5056046;28;20021;-72
2021/05/18 07:15:54;;;;;;;2.53;1.25;;;16.50;99.70;;;;;;5055666;28;20052;-71
2021/05/18 07:18:21;;;;;;;2.30;1.30;;;16.50;99.90;;;;;;5056078;28;20363;-76
2021/05/18 07:20:47;;;;;;;3.25;1.38;;;16.50;99.90;;;;;;5056485;28;20545;-75
2021/05/18 07:23:17;;;;;;;4.30;1.30;;;16.80;99.90;;;;;;5055868;28;20028;-75
2021/05/18 07:25:43;;;;;;;4.38;1.60;;;17.00;99.00;;;;;;5055961;28;20032;-75
2021/05/18 07:28:11;;;;;;;8.88;2.05;;;17.10;99.70;;;;;;5054232;28;20040;-73
2021/05/18 07:30:39;;;;;;;4.45;1.88;;;17.30;99.70;;;;;;5055787;28;20387;-73
2021/05/18 07:33:06;;;;;;;6.60;1.55;;;17.40;98.60;;;;;;5056059;28;20025;-73
2021/05/18 07:35:32;;;;;;;5.60;1.90;;;17.60;98.80;;;;;;5055745;28;20021;-76
2021/05/18 07:37:58;;;;;;;6.95;2.03;;;17.50;97.90;;;;;;5055961;28;20025;-73
2021/05/18 07:40:24;;;;;;;6.20;2.05;;;17.40;97.30;;;;;;5055939;28;20017;-74
2021/05/18 07:42:53;;;;;;;6.45;2.42;;;17.50;98.90;;;;;;5056173;28;20028;-75
2021/05/18 07:45:27;;;;;;;4.28;1.67;;;17.90;99.30;;;;;;5055442;28;20100;-72
2021/05/18 07:48:01;;;;;;;5.30;1.80;;;17.90;97.40;;;;;;5055879;28;20082;-73
2021/05/18 07:50:43;;;;;;;5.40;1.57;;;17.90;96.20;;;;;;5055415;28;20128;-72
2021/05/18 08:06:59;;;;;;;2.85;1.17;;;19.20;93.90;;;;;;5055506;28;20060;-72
2021/05/18 08:09:26;;;;;;;2.60;1.30;;;19.10;94.00;;;;;;5058565;28;20037;-70
2021/05/18 08:11:52;;;;;;;2.65;1.08;;;19.10;94.20;;;;;;5063685;28;20107;-71
2021/05/18 08:14:20;;;;;;;2.45;1.10;;;19.20;93.20;;;;;;5059867;28;20155;-73
2021/05/18 08:47:37;;;;;;;;;;;20.00;92.20;;;;;;5055006;28;20126;-78
2021/05/18 08:55:32;;;;;;;2.42;0.90;;;20.10;92.30;;;;;;5054196;28;19913;-75
2021/05/18 10:38:19;;;;;;;2.60;0.50;;;23.10;67.40;;;;;;5054136;28;20345;-70
2021/05/18 10:40:46;;;;;;;1.25;0.50;;;22.30;64.10;;;;;;5054577;28;20033;-70
2021/05/18 10:43:29;;;;;;;0.80;0.52;;;22.00;66.40;;;;;;5054573;28;20018;-72
2021/05/18 10:46:02;;;;;;;0.50;0.50;;;21.70;69.30;;;;;;5055626;28;20044;-71
2021/05/18 10:48:37;;;;;;;2.83;0.63;;;21.40;69.80;;;;;;5056681;28;20051;-72
2021/05/18 10:51:43;;;;;;;3.65;1.00;;;21.60;66.60;;;;;;5056457;28;20033;-74
2021/05/18 10:54:25;;;;;;;0.73;0.50;;;22.70;72.60;;;;;;5055134;28;20383;-73
2021/05/18 10:56:57;;;;;;;2.60;0.90;;;21.80;62.80;;;;;;5056505;28;20021;-71
2021/05/18 10:59:37;;;;;;;0.98;0.60;;;21.90;68.30;;;;;;5056389;28;20104;-72
2021/05/18 11:02:29;;;;;;;2.53;0.70;;;21.80;66.80;;;;;;5054436;28;20033;-72
2021/05/18 11:05:15;;;;;;;0.95;0.43;;;22.40;68.80;;;;;;5056038;28;20111;-70
2021/05/18 11:07:46;;;;;;;1.35;0.52;;;23.20;68.90;;;;;;5060308;28;20059;-73
2021/05/18 11:10:17;;;;;;;1.75;0.82;;;23.50;71.00;;;;;;5063049;28;20090;-71
2021/05/18 11:12:47;;;;;;;1.33;0.50;;;23.00;65.70;;;;;;5066229;28;20029;-72
2021/05/18 11:15:19;;;;;;;9.75;1.65;;;23.30;68.90;;;;;;5066160;28;20029;-72
2021/05/18 11:17:53;;;;;;;4.57;1.00;;;24.10;67.80;;;;;;5066147;28;20051;-71
2021/05/18 11:23:23;;;;;;;1.73;0.40;;;24.30;66.90;;;;;;5055509;28;20064;-73
2021/05/18 11:26:12;;;;;;;3.70;0.70;;;23.80;65.60;;;;;;5055960;28;20375;-73
2021/05/18 11:28:41;;;;;;;2.90;0.65;;;23.90;67.40;;;;;;5054748;28;20051;-75
2021/05/18 11:31:21;;;;;;;0.95;0.50;;;24.70;64.10;;;;;;5055552;28;20117;-73
2021/05/18 11:33:53;;;;;;;2.50;0.90;;;24.40;65.00;;;;;;5055158;28;20039;-75
2021/05/18 11:36:23;;;;;;;1.17;0.60;;;24.80;64.70;;;;;;5055608;28;20100;-75
2021/05/18 11:38:58;;;;;;;1.15;0.55;;;24.70;62.10;;;;;;5055696;28;20025;-75
2021/05/18 11:41:34;;;;;;;1.13;0.50;;;24.20;59.50;;;;;;5056307;28;20405;-73
2021/05/18 11:44:02;;;;;;;0.63;0.60;;;24.30;59.00;;;;;;5055805;28;20040;-70
2021/05/18 11:46:30;;;;;;;1.15;0.70;;;24.50;62.00;;;;;;5055544;28;20025;-75
2021/05/18 11:49:10;;;;;;;0.98;0.50;;;24.60;60.80;;;;;;5054124;28;20029;-70
2021/05/18 11:51:51;;;;;;;0.73;0.50;;;24.50;60.40;;;;;;5054059;28;20029;-71
2021/05/18 11:54:21;;;;;;;2.50;0.80;;;25.10;62.60;;;;;;5055489;28;20359;-73
2021/05/18 11:56:48;;;;;;;3.13;0.50;;;24.90;59.90;;;;;;5053994;28;20071;-69
2021/05/18 11:59:17;;;;;;;0.95;0.45;;;25.10;59.00;;;;;;5055349;28;20017;-70
2021/05/18 12:01:43;;;;;;;0.68;0.50;;;24.30;57.20;;;;;;5055451;28;20028;-72
2021/05/18 12:04:12;;;;;;;2.28;0.60;;;24.60;61.50;;;;;;5055425;28;20057;-72
2021/05/18 12:06:41;;;;;;;2.85;0.60;;;24.40;59.10;;;;;;5054900;28;20040;-74
2021/05/18 12:09:10;;;;;;;1.58;0.63;;;23.50;59.00;;;;;;5054936;28;20040;-74
2021/05/18 12:11:36;;;;;;;0.70;0.50;;;23.40;59.80;;;;;;5054907;28;20029;-74
2021/05/18 12:14:08;;;;;;;0.38;0.22;;;23.10;59.90;;;;;;5057263;28;20367;-72
2021/05/18 12:16:43;;;;;;;2.05;0.60;;;23.70;58.90;;;;;;5063276;28;20035;-73
2021/05/18 12:19:17;;;;;;;1.65;0.68;;;23.70;61.90;;;;;;5063015;28;20032;-75
2021/05/18 12:21:45;;;;;;;;;;;23.60;61.40;;;;;;5065722;28;20016;-76
2021/05/18 12:24:13;;;;;;;1.10;0.65;;;23.20;59.40;;;;;;5064534;28;20001;-73
2021/05/18 12:26:57;;;;;;;1.00;0.50;;;22.80;61.50;;;;;;5062766;28;20021;-75
2021/05/18 12:29:29;;;;;;;1.10;0.70;;;22.40;61.30;;;;;;5064709;28;20067;-74
2021/05/18 12:32:16;;;;;;;1.33;0.68;;;22.40;62.50;;;;;;5064474;28;20154;-74
2021/05/18 12:34:43;;;;;;;3.05;0.90;;;22.20;64.70;;;;;;5064218;28;20028;-74
2021/05/18 12:37:09;;;;;;;1.65;0.88;;;22.10;64.70;;;;;;5063492;28;20021;-75
2021/05/18 12:39:41;;;;;;;2.15;0.82;;;21.90;63.30;;;;;;5062504;28;20016;-73
2021/05/18 12:42:09;;;;;;;3.42;0.73;;;22.50;65.50;;;;;;5064379;28;20036;-73
2021/05/18 12:44:52;;;;;;;1.45;0.68;;;23.30;63.80;;;;;;5064259;28;20597;-76
2021/05/18 12:47:30;;;;;;;2.20;0.70;;;23.30;61.10;;;;;;5065445;28;20474;-75
2021/05/18 12:49:56;;;;;;;1.80;0.93;;;23.60;60.10;;;;;;5053796;28;20418;-75
2021/05/18 12:52:23;;;;;;;2.08;0.70;;;23.90;63.40;;;;;;5070185;28;20482;-75
2021/05/18 12:54:57;;;;;;;2.25;0.60;;;23.50;61.20;;;;;;5071975;28;20024;-75
2021/05/18 12:57:27;;;;;;;1.60;0.60;;;23.00;62.40;;;;;;5071041;28;20032;-74
2021/05/18 12:59:57;;;;;;;2.17;0.60;;;22.90;63.20;;;;;;5071854;28;20027;-74
2021/05/18 13:02:32;;;;;;;1.27;0.50;;;23.40;66.60;;;;;;5071851;28;20123;-75
2021/05/18 13:05:29;;;;;;;0.47;0.40;;;23.30;60.40;;;;;;5071908;28;20165;-74
2021/05/18 13:08:11;;;;;;;1.48;0.50;;;23.60;63.50;;;;;;5071889;28;20059;-75
2021/05/18 13:13:09;;;;;;;3.90;0.70;;;23.40;61.30;;;;;;5073624;28;20078;-76
2021/05/18 13:15:35;;;;;;;0.82;0.52;;;23.60;62.20;;;;;;5073779;28;20028;-78
2021/05/18 13:18:04;;;;;;;3.95;1.40;;;23.40;61.50;;;;;;5073718;28;20024;-73
2021/05/18 13:20:44;;;;;;;5.85;2.45;;;23.30;60.30;;;;;;5072451;28;20111;-75
2021/05/18 13:23:37;;;;;;;5.28;2.72;;;23.50;63.70;;;;;;5072549;28;20366;-77
2021/05/18 13:28:42;;;;;;;3.60;1.50;;;23.20;61.90;;;;;;5073593;28;20513;-76
2021/05/18 13:31:08;;;;;;;1.60;0.90;;;23.10;59.20;;;;;;5073817;28;20055;-76
2021/05/18 13:33:35;;;;;;;3.10;1.10;;;23.40;63.00;;;;;;5073968;28;20065;-76
2021/05/18 13:36:02;;;;;;;2.30;0.80;;;23.90;64.30;;;;;;5072442;28;20020;-77
2021/05/18 13:38:28;;;;;;;1.20;0.90;;;24.00;62.50;;;;;;5073463;28;20021;-77
2021/05/18 13:40:54;;;;;;;1.75;0.73;;;24.00;61.30;;;;;;5073624;28;20012;-77
2021/05/18 13:43:20;;;;;;;2.45;0.90;;;24.50;63.60;;;;;;5072146;28;20020;-75
2021/05/18 13:45:46;;;;;;;1.95;0.65;;;24.50;61.40;;;;;;5073746;28;20024;-72
2021/05/18 13:48:12;;;;;;;0.55;0.50;;;24.70;59.90;;;;;;5073492;28;20371;-79
2021/05/18 13:50:38;;;;;;;2.70;0.90;;;24.10;61.20;;;;;;5073394;28;20047;-77
2021/05/18 13:53:05;;;;;;;6.07;1.20;;;24.20;60.70;;;;;;5072597;28;20394;-77
2021/05/18 13:55:33;;;;;;;3.53;1.33;;;24.50;63.20;;;;;;5073827;28;20025;-76
2021/05/18 13:58:00;;;;;;;1.50;0.80;;;24.50;62.90;;;;;;5076129;28;20052;-78
2021/05/18 14:00:26;;;;;;;2.25;0.80;;;24.60;62.20;;;;;;5077289;28;20142;-74
2021/05/18 14:02:53;;;;;;;5.75;0.60;;;24.50;62.60;;;;;;5077686;28;20029;-79
2021/05/18 14:05:21;;;;;;;1.02;0.40;;;24.20;59.60;;;;;;5077544;28;20024;-78
2021/05/18 14:10:35;;;;;;;2.22;0.40;;;23.90;60.50;;;;;;5077307;28;20490;-75
2021/05/18 14:13:01;;;;;;;1.55;0.52;;;23.80;62.80;;;;;;5077273;28;20103;-78
2021/05/18 14:15:27;;;;;;;0.30;0.30;;;23.70;62.30;;;;;;5077480;28;20027;-77
2021/05/18 14:17:53;;;;;;;1.40;0.70;;;23.70;63.00;;;;;;5077344;28;20078;-78
2021/05/18 14:20:19;;;;;;;0.60;0.50;;;23.40;60.70;;;;;;5075963;28;20093;-74
2021/05/18 14:22:45;;;;;;;0.63;0.43;;;23.30;60.40;;;;;;5076930;28;20549;-76
2021/05/18 14:25:11;;;;;;;0.70;0.50;;;23.30;61.10;;;;;;5075871;28;20100;-74
2021/05/18 14:27:39;;;;;;;0.75;0.50;;;23.40;58.10;;;;;;5075035;28;20044;-74
2021/05/18 14:30:11;;;;;;;0.65;0.40;;;23.30;60.70;;;;;;5075248;28;20490;-76
2021/05/18 14:32:38;;;;;;;1.42;0.47;;;23.20;60.00;;;;;;5075831;28;20023;-77
2021/05/18 14:35:09;;;;;;;2.80;0.63;;;23.20;59.50;;;;;;5075828;28;20479;-75
2021/05/18 14:37:37;;;;;;;0.75;0.30;;;23.20;60.80;;;;;;5075765;28;20078;-77
2021/05/18 14:45:17;;;;;;;0.57;0.30;;;23.00;59.70;;;;;;5076950;28;20070;-78
2021/05/18 14:56:03;;;;;;;0.75;0.43;;;22.80;59.30;;;;;;5076896;28;20063;-77
2021/05/18 14:58:29;;;;;;;1.33;0.60;;;22.70;60.00;;;;;;5076782;28;20078;-78
2021/05/18 15:00:55;;;;;;;2.58;0.50;;;22.70;59.20;;;;;;5076299;28;20013;-77
2021/05/18 15:03:21;;;;;;;0.80;0.52;;;22.70;61.60;;;;;;5076607;28;20481;-78
2021/05/18 15:05:47;;;;;;;1.25;0.50;;;22.80;61.30;;;;;;5076597;28;20108;-74
2021/05/18 15:08:13;;;;;;;3.00;0.70;;;22.70;59.20;;;;;;5075851;28;20028;-78
2021/05/18 15:10:40;;;;;;;1.13;0.57;;;22.50;58.00;;;;;;5075480;28;20025;-75
2021/05/18 15:13:07;;;;;;;6.35;0.65;;;22.60;58.90;;;;;;5076140;28;20024;-76
2021/05/18 15:15:33;;;;;;;1.67;0.40;;;22.40;57.10;;;;;;5076076;28;20024;-78
2021/05/18 15:18:00;;;;;;;2.05;0.75;;;22.40;59.80;;;;;;5076056;28;20016;-77
2021/05/18 15:20:27;;;;;;;1.15;0.70;;;22.30;60.00;;;;;;5074674;28;20474;-78
2021/05/18 15:22:53;;;;;;;4.70;0.60;;;22.40;61.60;;;;;;5076044;28;20150;-78
2021/05/18 15:25:21;;;;;;;1.10;0.70;;;22.30;60.20;;;;;;5075919;28;20021;-76
2021/05/18 15:27:47;;;;;;;1.65;0.50;;;22.30;60.70;;;;;;5075678;28;20537;-75
2021/05/18 15:30:14;;;;;;;2.78;0.60;;;22.30;61.40;;;;;;5075646;28;20032;-79
2021/05/18 15:32:40;;;;;;;2.15;0.47;;;22.10;61.70;;;;;;5075756;28;20107;-78
2021/05/18 15:35:07;;;;;;;2.08;0.52;;;22.10;61.60;;;;;;5074419;28;20024;-78
2021/05/18 15:37:34;;;;;;;0.73;0.30;;;22.10;58.70;;;;;;5075715;28;20501;-78
2021/05/18 15:40:01;;;;;;;0.50;0.30;;;22.10;62.60;;;;;;5076011;28;20028;-78
2021/05/18 15:42:28;;;;;;;1.55;0.50;;;22.00;60.50;;;;;;5075909;28;20021;-75
2021/05/18 15:44:54;;;;;;;1.35;0.88;;;22.00;59.90;;;;;;5075799;28;20020;-79
2021/05/18 15:47:22;;;;;;;1.17;0.52;;;22.00;61.60;;;;;;5075834;28;20020;-79
2021/05/18 15:49:48;;;;;;;1.30;0.63;;;21.90;60.70;;;;;;5075413;28;20115;-77
2021/05/18 15:52:14;;;;;;;0.77;0.47;;;21.90;61.30;;;;;;5075547;28;20093;-79
2021/05/18 15:54:42;;;;;;;0.90;0.50;;;21.80;61.40;;;;;;5075599;28;20021;-72
2021/05/18 15:57:08;;;;;;;1.15;0.45;;;21.80;59.00;;;;;;5075446;28;20024;-79
2021/05/18 15:59:35;;;;;;;1.92;0.60;;;21.70;61.90;;;;;;5075502;28;20017;-79
2021/05/18 16:02:02;;;;;;;1.27;0.50;;;21.60;59.40;;;;;;5075422;28;20021;-78
2021/05/18 16:04:29;;;;;;;2.45;0.65;;;21.50;60.50;;;;;;5073943;28;20025;-77
2021/05/18 16:06:56;;;;;;;1.40;0.50;;;21.50;60.10;;;;;;5075417;28;20044;-79
2021/05/18 16:09:22;;;;;;;2.08;0.50;;;21.50;61.80;;;;;;5075184;28;20040;-75
2021/05/18 16:11:48;;;;;;;0.60;0.40;;;21.50;60.40;;;;;;5075498;28;20040;-76
2021/05/18 16:14:14;;;;;;;0.98;0.50;;;21.50;61.20;;;;;;5075188;28;20028;-80
2021/05/18 16:16:40;;;;;;;1.90;0.45;;;21.40;60.70;;;;;;5075114;28;20020;-78
2021/05/18 16:19:06;;;;;;;2.35;0.98;;;21.40;61.90;;;;;;5075065;28;20029;-79
2021/05/18 16:21:34;;;;;;;2.10;0.90;;;21.30;60.90;;;;;;5073435;28;20021;-78
2021/05/18 16:24:00;;;;;;;2.50;1.08;;;21.30;61.60;;;;;;5074870;28;20118;-78
2021/05/18 16:26:32;;;;;;;1.30;0.43;;;21.30;61.60;;;;;;5074950;28;20059;-75
2021/05/18 16:29:00;;;;;;;2.00;0.50;;;21.30;61.10;;;;;;5074461;28;20067;-79
2021/05/18 16:31:27;;;;;;;0.82;0.40;;;21.20;61.60;;;;;;5073429;28;20033;-75
2021/05/18 16:33:54;;;;;;;1.90;0.30;;;21.20;60.60;;;;;;5074713;28;20038;-79
2021/05/18 16:36:20;;;;;;;0.32;0.20;;;21.10;59.80;;;;;;5074922;28;20025;-74
2021/05/18 16:38:46;;;;;;;2.75;0.52;;;21.00;61.50;;;;;;5073458;28;20108;-74
2021/05/18 16:41:12;;;;;;;0.65;0.40;;;21.00;62.40;;;;;;5073152;28;20116;-78
2021/05/18 16:43:39;;;;;;;0.95;0.50;;;20.90;62.00;;;;;;5074572;28;20025;-77
2021/05/18 16:46:07;;;;;;;1.30;0.52;;;20.90;62.50;;;;;;5074654;28;20025;-77
2021/05/18 16:48:33;;;;;;;0.90;0.60;;;20.90;64.10;;;;;;5073024;28;20059;-77
2021/05/18 16:51:02;;;;;;;1.45;0.60;;;20.90;63.90;;;;;;5072738;28;20488;-74
2021/05/18 16:53:29;;;;;;;0.90;0.57;;;20.80;63.60;;;;;;5074651;28;20178;-77
2021/05/18 16:55:55;;;;;;;2.13;1.05;;;20.70;63.40;;;;;;5074186;28;20069;-74
2021/05/18 16:58:21;;;;;;;3.42;1.20;;;20.70;62.80;;;;;;5074597;28;20031;-79
2021/05/18 17:00:47;;;;;;;1.52;0.90;;;20.80;64.20;;;;;;5074224;28;20048;-74
2021/05/18 17:03:14;;;;;;;2.30;0.90;;;20.70;64.70;;;;;;5074074;28;20048;-78
2021/05/18 17:05:40;;;;;;;2.17;0.70;;;20.70;63.00;;;;;;5074469;28;20154;-74
2021/05/18 17:08:07;;;;;;;2.63;1.33;;;20.60;66.10;;;;;;5074164;28;20073;-74
2021/05/18 17:10:40;;;;;;;2.70;1.13;;;20.60;65.50;;;;;;5073973;28;20074;-78
2021/05/18 17:13:07;;;;;;;2.97;1.23;;;20.60;66.50;;;;;;5072667;28;20067;-79
2021/05/18 17:15:33;;;;;;;3.00;1.00;;;20.60;68.20;;;;;;5074113;28;20017;-77
2021/05/18 17:17:59;;;;;;;5.60;0.93;;;20.50;67.70;;;;;;5073835;28;20032;-76
2021/05/18 17:20:27;;;;;;;1.17;0.90;;;20.50;66.90;;;;;;5073858;28;20024;-75
2021/05/18 17:22:54;;;;;;;1.33;0.68;;;20.50;70.00;;;;;;5073949;28;20016;-77
2021/05/18 17:25:20;;;;;;;2.40;1.00;;;20.40;69.80;;;;;;5072601;28;20104;-74
2021/05/18 17:27:46;;;;;;;3.28;0.88;;;20.40;72.00;;;;;;5073647;28;20052;-74
2021/05/18 17:30:15;;;;;;;4.60;0.82;;;20.30;71.50;;;;;;5073760;28;20074;-76
2021/05/18 17:32:41;;;;;;;1.92;0.90;;;20.30;73.40;;;;;;5073218;28;20024;-78
2021/05/18 17:35:09;;;;;;;1.45;0.75;;;20.30;74.90;;;;;;5073772;28;20020;-74
2021/05/18 17:37:35;;;;;;;2.78;0.80;;;20.30;75.60;;;;;;5072180;28;20035;-75
2021/05/18 17:40:05;;;;;;;1.23;0.68;;;20.20;76.60;;;;;;5073867;28;20016;-78
2021/05/18 17:42:31;;;;;;;7.65;1.02;;;20.10;78.60;;;;;;5073727;28;20585;-78
2021/05/18 17:45:05;;;;;;;3.40;0.73;;;20.00;75.00;;;;;;5073774;28;20108;-74
2021/05/18 17:47:31;;;;;;;3.58;0.90;;;20.00;76.80;;;;;;5073745;28;20450;-73
2021/05/18 17:49:58;;;;;;;2.72;0.85;;;19.90;78.80;;;;;;5073602;28;20033;-78
2021/05/18 17:52:24;;;;;;;5.03;1.10;;;19.80;76.70;;;;;;5073463;28;20024;-78
2021/05/18 17:54:50;;;;;;;2.58;0.93;;;19.80;76.30;;;;;;5073590;28;20091;-78
2021/05/18 17:57:16;;;;;;;3.10;1.10;;;19.70;78.50;;;;;;5073631;28;20040;-74
2021/05/18 17:59:42;;;;;;;1.80;0.73;;;19.60;80.50;;;;;;5073908;28;20366;-78
2021/05/18 18:02:09;;;;;;;4.07;1.20;;;19.60;83.50;;;;;;5072134;28;20439;-73
2021/05/18 18:04:38;;;;;;;2.85;0.90;;;19.60;84.00;;;;;;5073775;28;20493;-78
2021/05/18 18:07:09;;;;;;;4.07;1.08;;;19.60;83.50;;;;;;5073549;28;20021;-79
2021/05/18 18:09:45;;;;;;;5.60;1.40;;;19.50;83.80;;;;;;5071976;28;20032;-79
2021/05/18 18:12:13;;;;;;;3.63;1.98;;;19.40;86.40;;;;;;5073471;28;20029;-78
2021/05/18 18:14:39;;;;;;;4.97;2.15;;;19.30;84.20;;;;;;5073457;28;20415;-73